createdAt,value
2023-01-07T00:00:13.166Z,10.50
2023-01-07T00:02:59.777Z,10.60
2023-01-07T00:05:46.854Z,10.60
2023-01-07T00:08:35.441Z,10.70
2023-01-07T00:11:25.906Z,10.80
2023-01-07T00:14:14.310Z,10.80
2023-01-07T00:17:00.548Z,10.90
2023-01-07T00:19:46.958Z,10.90
2023-01-07T00:22:33.291Z,11.00
2023-01-07T00:25:19.678Z,11.10
2023-01-07T00:28:07.417Z,11.20
2023-01-07T00:30:54.124Z,11.30
2023-01-07T00:33:49.424Z,11.30
2023-01-07T00:36:39.979Z,11.20
2023-01-07T00:39:27.054Z,11.20
2023-01-07T00:42:30.860Z,11.20
2023-01-07T00:45:19.300Z,11.20
2023-01-07T00:48:06.604Z,11.00
2023-01-07T00:50:54.141Z,10.90
2023-01-07T00:53:41.187Z,10.90
2023-01-07T00:56:27.952Z,10.80
2023-01-07T00:59:14.516Z,10.80
2023-01-07T01:02:04.522Z,10.90
2023-01-07T01:04:52.071Z,10.80
2023-01-07T01:07:39.511Z,10.70
2023-01-07T01:10:25.985Z,10.80
2023-01-07T01:13:17.349Z,10.80
2023-01-07T01:16:09.670Z,10.90
2023-01-07T01:18:57.827Z,11.00
2023-01-07T01:21:44.758Z,10.90
2023-01-07T01:24:31.491Z,10.90
2023-01-07T01:27:18.465Z,10.80
2023-01-07T01:30:06.324Z,10.80
2023-01-07T01:32:55.968Z,10.80
2023-01-07T01:35:43.687Z,10.70
2023-01-07T01:38:31.470Z,10.70
2023-01-07T01:41:19.058Z,10.70
2023-01-07T01:44:36.960Z,10.80
2023-01-07T01:47:34.148Z,10.80
2023-01-07T01:50:25.399Z,10.70
2023-01-07T01:53:17.639Z,10.70
2023-01-07T01:56:11.100Z,10.70
2023-01-07T01:59:02.063Z,10.60
2023-01-07T02:01:53.559Z,10.70
2023-01-07T02:04:40.830Z,10.70
2023-01-07T02:07:27.575Z,10.60
2023-01-07T02:10:20.325Z,10.60
2023-01-07T02:13:32.118Z,10.50
2023-01-07T02:16:24.646Z,10.60
2023-01-07T02:19:33.258Z,10.50
2023-01-07T02:22:35.366Z,10.50
2023-01-07T02:25:46.149Z,10.40
2023-01-07T02:29:00.025Z,10.50
2023-01-07T02:32:21.576Z,10.50
2023-01-07T02:35:21.087Z,10.60
2023-01-07T02:38:17.780Z,10.60
2023-01-07T02:41:15.789Z,10.60
2023-01-07T02:44:07.964Z,10.60
2023-01-07T02:47:02.093Z,10.60
2023-01-07T02:49:50.065Z,10.70
2023-01-07T02:52:38.129Z,10.70
2023-01-07T02:55:35.819Z,10.70
2023-01-07T02:59:05.977Z,10.70
2023-01-07T03:02:14.043Z,10.70
2023-01-07T03:05:17.769Z,10.70
2023-01-07T03:08:16.484Z,10.70
2023-01-07T03:11:05.401Z,10.50
2023-01-07T03:13:58.789Z,10.50
2023-01-07T03:16:48.252Z,10.60
2023-01-07T03:19:37.256Z,10.50
2023-01-07T03:22:30.194Z,10.60
2023-01-07T03:25:20.119Z,10.60
2023-01-07T03:28:08.173Z,10.60
2023-01-07T03:30:57.893Z,10.70
2023-01-07T03:33:51.558Z,10.70
2023-01-07T03:36:40.421Z,10.70
2023-01-07T03:39:30.973Z,10.80
2023-01-07T03:42:41.274Z,10.70
2023-01-07T03:45:32.156Z,10.60
2023-01-07T03:48:20.015Z,10.60
2023-01-07T03:51:08.657Z,10.70
2023-01-07T03:53:55.814Z,10.60
2023-01-07T03:56:45.568Z,10.60
2023-01-07T03:59:32.428Z,10.70
2023-01-07T04:02:18.796Z,10.70
2023-01-07T04:05:06.266Z,10.60
2023-01-07T04:07:53.215Z,10.70
2023-01-07T04:10:40.394Z,10.70
2023-01-07T04:13:28.083Z,10.70
2023-01-07T04:16:14.746Z,10.60
2023-01-07T04:19:01.781Z,10.70
2023-01-07T04:21:48.479Z,10.80
2023-01-07T04:24:35.187Z,10.90
2023-01-07T04:27:22.113Z,11.00
2023-01-07T04:30:11.577Z,10.90
2023-01-07T04:32:58.851Z,10.90
2023-01-07T04:35:47.679Z,10.80
2023-01-07T04:38:35.558Z,10.80
2023-01-07T04:41:22.621Z,10.80
2023-01-07T04:44:10.249Z,10.90
2023-01-07T04:46:58.712Z,10.90
2023-01-07T04:49:45.924Z,10.70
2023-01-07T04:52:33.709Z,10.70
2023-01-07T04:55:20.533Z,10.70
2023-01-07T04:58:08.184Z,10.70
2023-01-07T05:00:58.395Z,10.80
2023-01-07T05:03:47.102Z,10.70
2023-01-07T05:06:34.861Z,10.70
2023-01-07T05:09:22.259Z,10.70
2023-01-07T05:12:10.216Z,10.70
2023-01-07T05:14:57.519Z,10.60
2023-01-07T05:17:44.260Z,10.60
2023-01-07T05:20:32.641Z,10.60
2023-01-07T05:23:19.501Z,10.60
2023-01-07T05:26:05.987Z,10.50
2023-01-07T05:28:52.409Z,10.50
2023-01-07T05:31:39.266Z,10.50
2023-01-07T05:34:26.519Z,10.40
2023-01-07T05:37:14.560Z,10.30
2023-01-07T05:40:03.345Z,10.40
2023-01-07T05:42:50.403Z,10.30
2023-01-07T05:45:37.168Z,10.30
2023-01-07T05:48:24.232Z,10.30
2023-01-07T05:51:10.980Z,10.30
2023-01-07T05:53:58.432Z,10.20
2023-01-07T05:56:44.879Z,10.20
2023-01-07T05:59:34.553Z,10.20
2023-01-07T06:02:21.245Z,10.10
2023-01-07T06:05:08.755Z,10.10
2023-01-07T06:07:55.739Z,10.10
2023-01-07T06:10:44.319Z,10.20
2023-01-07T06:13:31.163Z,10.30
2023-01-07T06:16:17.616Z,10.30
2023-01-07T06:19:04.125Z,10.30
2023-01-07T06:21:50.921Z,10.30
2023-01-07T06:24:37.217Z,10.30
2023-01-07T06:27:25.043Z,10.30
2023-01-07T06:30:12.761Z,10.30
2023-01-07T06:33:00.213Z,10.40
2023-01-07T06:35:47.050Z,10.40
2023-01-07T06:38:33.443Z,10.30
2023-01-07T06:41:19.813Z,10.30
2023-01-07T06:44:08.493Z,10.20
2023-01-07T06:46:55.182Z,10.20
2023-01-07T06:49:41.519Z,10.10
2023-01-07T06:52:28.369Z,10.00
2023-01-07T06:55:14.886Z,10.00
2023-01-07T06:58:01.070Z,10.00
2023-01-07T07:00:48.770Z,10.00
2023-01-07T07:03:35.415Z,9.90
2023-01-07T07:06:21.752Z,9.90
2023-01-07T07:09:08.093Z,9.90
2023-01-07T07:11:54.629Z,9.90
2023-01-07T07:14:41.126Z,9.90
2023-01-07T07:17:29.076Z,9.90
2023-01-07T07:20:15.370Z,10.00
2023-01-07T07:23:01.947Z,10.00
2023-01-07T07:25:48.573Z,9.90
2023-01-07T07:28:34.906Z,10.00
2023-01-07T07:31:21.217Z,10.00
2023-01-07T07:34:10.410Z,10.00
2023-01-07T07:36:57.274Z,10.00
2023-01-07T07:39:43.638Z,10.00
2023-01-07T07:42:29.797Z,10.00
2023-01-07T07:45:19.592Z,9.90
2023-01-07T07:48:07.196Z,9.90
2023-01-07T07:50:55.191Z,9.90
2023-01-07T07:53:42.044Z,9.90
2023-01-07T07:56:28.500Z,9.90
2023-01-07T07:59:14.976Z,9.90
2023-01-07T08:02:01.383Z,10.00
2023-01-07T08:04:48.438Z,10.00
2023-01-07T08:07:37.752Z,10.00
2023-01-07T08:10:25.034Z,10.10
2023-01-07T08:13:12.118Z,10.20
2023-01-07T08:15:59.078Z,10.20
2023-01-07T08:18:45.744Z,10.30
2023-01-07T08:21:32.191Z,10.30
2023-01-07T08:24:20.054Z,10.20
2023-01-07T08:27:06.386Z,10.30
2023-01-07T08:29:52.602Z,10.30
2023-01-07T08:32:39.076Z,10.30
2023-01-07T08:35:25.551Z,10.30
2023-01-07T08:38:12.674Z,10.20
2023-01-07T08:41:01.129Z,10.20
2023-01-07T08:43:47.442Z,10.10
2023-01-07T08:46:33.751Z,10.10
2023-01-07T08:49:20.304Z,10.10
2023-01-07T08:52:06.820Z,10.10
2023-01-07T08:54:53.469Z,10.10
2023-01-07T08:57:41.148Z,10.10
2023-01-07T09:00:28.211Z,10.10
2023-01-07T09:03:14.629Z,10.10
2023-01-07T09:06:01.212Z,10.20
2023-01-07T09:08:47.731Z,10.20
2023-01-07T09:11:34.059Z,10.20
2023-01-07T09:14:21.889Z,10.20
2023-01-07T09:17:08.398Z,10.10
2023-01-07T09:19:54.793Z,10.10
2023-01-07T09:22:41.186Z,10.10
2023-01-07T09:25:27.699Z,10.10
2023-01-07T09:28:14.031Z,10.10
2023-01-07T09:31:03.089Z,10.20
2023-01-07T09:33:49.773Z,10.20
2023-01-07T09:36:36.287Z,10.20
2023-01-07T09:39:23.197Z,10.20
2023-01-07T09:42:20.991Z,10.20
2023-01-07T09:45:16.603Z,10.30
2023-01-07T09:48:07.757Z,10.30
2023-01-07T09:51:01.354Z,10.30
2023-01-07T09:53:50.952Z,10.30
2023-01-07T09:56:41.313Z,10.30
2023-01-07T09:59:28.571Z,10.30
2023-01-07T10:02:27.023Z,10.40
2023-01-07T10:05:30.426Z,10.40
2023-01-07T10:08:31.145Z,10.40
2023-01-07T10:11:30.912Z,10.40
2023-01-07T10:14:34.927Z,10.30
2023-01-07T10:17:36.786Z,10.40
2023-01-07T10:20:33.592Z,10.40
2023-01-07T10:23:24.084Z,10.60
2023-01-07T10:26:19.586Z,10.60
2023-01-07T10:29:12.166Z,10.60
2023-01-07T10:32:05.959Z,10.60
2023-01-07T10:34:54.409Z,10.50
2023-01-07T10:37:44.420Z,10.60
2023-01-07T10:40:38.975Z,10.70
2023-01-07T10:43:40.098Z,10.70
2023-01-07T10:46:43.944Z,10.80
2023-01-07T10:49:46.379Z,10.90
2023-01-07T10:52:46.502Z,10.90
2023-01-07T10:55:45.324Z,10.90
2023-01-07T10:58:37.411Z,10.90
2023-01-07T11:01:27.893Z,10.90
2023-01-07T11:04:17.586Z,11.00
2023-01-07T11:07:07.899Z,11.10
2023-01-07T11:09:55.645Z,11.10
2023-01-07T11:12:47.044Z,11.10
2023-01-07T11:15:37.574Z,11.30
2023-01-07T11:18:30.282Z,11.30
2023-01-07T11:21:43.034Z,11.50
2023-01-07T11:24:33.474Z,11.50
2023-01-07T11:27:22.028Z,11.50
2023-01-07T11:30:24.043Z,11.70
2023-01-07T11:33:23.080Z,11.60
2023-01-07T11:36:41.045Z,11.70
2023-01-07T11:39:30.374Z,11.80
2023-01-07T11:42:36.278Z,11.70
2023-01-07T11:45:25.867Z,11.80
2023-01-07T11:48:21.012Z,12.00
2023-01-07T11:51:10.662Z,12.10
2023-01-07T11:53:59.666Z,12.20
2023-01-07T11:56:46.386Z,12.20
2023-01-07T11:59:32.743Z,12.30
2023-01-07T12:02:28.323Z,12.30
2023-01-07T12:05:22.485Z,12.60
2023-01-07T12:08:20.977Z,12.80
2023-01-07T12:11:10.815Z,12.90
2023-01-07T12:13:57.661Z,13.10
2023-01-07T12:16:44.833Z,13.10
2023-01-07T12:19:56.193Z,13.20
2023-01-07T12:22:58.803Z,13.30
2023-01-07T12:25:55.547Z,13.20
2023-01-07T12:28:57.412Z,13.30
2023-01-07T12:31:59.580Z,13.50
2023-01-07T12:34:53.119Z,13.80
2023-01-07T12:37:44.612Z,13.90
2023-01-07T12:40:34.498Z,14.00
2023-01-07T12:43:26.769Z,13.80
2023-01-07T12:46:16.566Z,13.80
2023-01-07T12:49:06.588Z,13.80
2023-01-07T12:52:01.419Z,14.00
2023-01-07T12:54:55.521Z,14.30
2023-01-07T12:57:43.152Z,14.50
2023-01-07T13:00:34.902Z,14.60
2023-01-07T13:03:35.909Z,14.70
2023-01-07T13:06:38.368Z,14.60
2023-01-07T13:09:34.566Z,14.50
2023-01-07T13:12:47.533Z,14.30
2023-01-07T13:15:38.953Z,14.10
2023-01-07T13:18:25.636Z,13.90
2023-01-07T13:21:13.959Z,14.00
2023-01-07T13:24:55.819Z,13.90
2023-01-07T13:27:56.057Z,13.50
2023-01-07T13:30:53.837Z,13.40
2023-01-07T13:33:46.379Z,13.30
2023-01-07T13:36:39.779Z,13.30
2023-01-07T13:39:41.781Z,13.20
2023-01-07T13:42:40.186Z,13.10
2023-01-07T13:45:29.114Z,12.80
2023-01-07T13:48:21.625Z,12.60
2023-01-07T13:51:10.416Z,12.50
2023-01-07T13:53:57.142Z,12.50
2023-01-07T13:56:43.763Z,12.60
2023-01-07T13:59:47.658Z,12.50
2023-01-07T14:02:56.113Z,12.50
2023-01-07T14:05:42.883Z,12.50
2023-01-07T14:08:29.903Z,12.50
2023-01-07T14:11:16.394Z,12.50
2023-01-07T14:14:10.314Z,12.60
2023-01-07T14:17:09.710Z,12.60
2023-01-07T14:20:05.587Z,12.60
2023-01-07T14:23:03.388Z,12.60
2023-01-07T14:26:06.890Z,12.60
2023-01-07T14:29:22.404Z,12.70
2023-01-07T14:32:27.865Z,12.80
2023-01-07T14:35:26.744Z,12.70
2023-01-07T14:39:01.288Z,12.70
2023-01-07T14:42:21.304Z,12.50
2023-01-07T14:45:41.148Z,12.50
2023-01-07T14:48:34.850Z,12.40
2023-01-07T14:51:43.454Z,12.50
2023-01-07T14:54:50.040Z,12.50
2023-01-07T14:57:42.866Z,12.30
2023-01-07T15:00:51.719Z,12.20
2023-01-07T15:03:53.807Z,12.10
2023-01-07T15:06:41.853Z,12.10
2023-01-07T15:09:55.500Z,12.10
2023-01-07T15:13:02.081Z,12.10
2023-01-07T15:16:02.788Z,12.10
2023-01-07T15:18:53.479Z,12.00
2023-01-07T15:21:51.542Z,11.90
2023-01-07T15:24:44.505Z,11.70
2023-01-07T15:27:41.286Z,11.80
2023-01-07T15:30:41.112Z,11.60
2023-01-07T15:34:07.156Z,11.60
2023-01-07T15:36:54.110Z,11.40
2023-01-07T15:39:45.749Z,11.10
2023-01-07T15:42:32.943Z,11.00
2023-01-07T15:45:21.709Z,10.80
2023-01-07T15:48:12.878Z,10.80
2023-01-07T15:51:01.026Z,10.80
2023-01-07T15:53:56.065Z,10.60
2023-01-07T15:56:42.547Z,10.50
2023-01-07T15:59:32.283Z,10.30
2023-01-07T16:02:24.192Z,10.00
2023-01-07T16:05:11.781Z,9.90
2023-01-07T16:08:01.417Z,9.80
2023-01-07T16:11:00.440Z,9.80
2023-01-07T16:13:56.786Z,9.60
2023-01-07T16:16:43.865Z,9.60
2023-01-07T16:19:30.623Z,9.70
2023-01-07T16:22:19.877Z,9.50
2023-01-07T16:25:14.054Z,9.40
2023-01-07T16:28:00.875Z,9.40
2023-01-07T16:30:48.773Z,9.40
2023-01-07T16:33:39.264Z,9.50
2023-01-07T16:36:28.985Z,9.50
2023-01-07T16:39:21.945Z,9.30
2023-01-07T16:42:23.299Z,9.30
2023-01-07T16:45:24.293Z,9.20
2023-01-07T16:48:19.723Z,9.10
2023-01-07T16:51:28.620Z,9.20
2023-01-07T16:54:34.273Z,9.30
2023-01-07T16:57:42.906Z,9.40
2023-01-07T17:00:29.378Z,9.40
2023-01-07T17:03:16.984Z,9.40
2023-01-07T17:06:07.506Z,9.40
2023-01-07T17:08:56.659Z,9.30
2023-01-07T17:11:43.915Z,9.30
2023-01-07T17:14:49.866Z,9.20
2023-01-07T17:17:36.620Z,9.10
2023-01-07T17:20:23.201Z,9.00
2023-01-07T17:23:32.798Z,9.00
2023-01-07T17:26:23.182Z,9.00
2023-01-07T17:29:13.007Z,9.00
2023-01-07T17:32:01.812Z,9.00
2023-01-07T17:34:48.384Z,9.10
2023-01-07T17:37:36.937Z,9.10
2023-01-07T17:40:23.613Z,9.20
2023-01-07T17:43:32.417Z,9.10
2023-01-07T17:46:19.572Z,9.10
2023-01-07T17:49:08.014Z,9.10
2023-01-07T17:51:54.977Z,8.90
2023-01-07T17:54:42.213Z,8.90
2023-01-07T17:57:28.731Z,8.80
2023-01-07T18:00:20.403Z,8.80
2023-01-07T18:03:07.017Z,8.80
2023-01-07T18:05:55.192Z,8.80
2023-01-07T18:08:41.925Z,8.90
2023-01-07T18:11:46.955Z,9.00
2023-01-07T18:14:33.683Z,9.00
2023-01-07T18:17:20.652Z,9.00
2023-01-07T18:20:07.963Z,9.00
2023-01-07T18:22:55.687Z,9.00
2023-01-07T18:25:44.470Z,9.00
2023-01-07T18:28:31.247Z,9.00
2023-01-07T18:31:17.952Z,9.00
2023-01-07T18:34:04.837Z,9.00
2023-01-07T18:36:51.290Z,9.00
2023-01-07T18:39:39.204Z,9.00
2023-01-07T18:42:25.777Z,9.00
2023-01-07T18:45:13.542Z,9.00
2023-01-07T18:48:00.269Z,9.00
2023-01-07T18:50:48.164Z,9.00
2023-01-07T18:53:34.913Z,8.90
2023-01-07T18:56:22.742Z,8.80
2023-01-07T18:59:09.268Z,8.80
2023-01-07T19:01:57.996Z,8.70
2023-01-07T19:04:44.507Z,8.70
2023-01-07T19:07:31.641Z,8.70
2023-01-07T19:10:18.264Z,8.70
2023-01-07T19:13:06.041Z,8.60
2023-01-07T19:15:52.419Z,8.60
2023-01-07T19:18:39.279Z,8.50
2023-01-07T19:21:26.663Z,8.40
2023-01-07T19:24:13.262Z,8.40
2023-01-07T19:27:00.141Z,8.30
2023-01-07T19:29:47.707Z,8.30
2023-01-07T19:32:34.399Z,8.40
2023-01-07T19:35:20.823Z,8.40
2023-01-07T19:38:07.403Z,8.40
2023-01-07T19:40:53.781Z,8.40
2023-01-07T19:43:40.719Z,8.40
2023-01-07T19:46:29.260Z,8.40
2023-01-07T19:49:15.975Z,8.40
2023-01-07T19:52:02.475Z,8.30
2023-01-07T19:54:48.798Z,8.40
2023-01-07T19:57:35.204Z,8.50
2023-01-07T20:00:22.249Z,8.50
2023-01-07T20:03:10.017Z,8.40
2023-01-07T20:06:01.457Z,8.40
2023-01-07T20:08:48.882Z,8.50
2023-01-07T20:11:35.288Z,8.50
2023-01-07T20:14:22.090Z,8.60
2023-01-07T20:17:08.788Z,8.60
2023-01-07T20:19:56.423Z,8.60
2023-01-07T20:22:45.262Z,8.40
2023-01-07T20:25:31.862Z,8.40
2023-01-07T20:28:18.650Z,8.30
2023-01-07T20:31:06.956Z,8.30
2023-01-07T20:33:55.578Z,8.30
2023-01-07T20:36:43.204Z,8.30
2023-01-07T20:39:29.630Z,8.30
2023-01-07T20:42:15.920Z,8.30
2023-01-07T20:45:02.266Z,8.20
2023-01-07T20:47:48.831Z,8.20
2023-01-07T20:50:36.327Z,8.20
2023-01-07T20:53:26.255Z,8.30
2023-01-07T20:56:13.053Z,8.10
2023-01-07T20:59:00.295Z,8.20
2023-01-07T21:01:46.819Z,8.20
2023-01-07T21:04:33.405Z,8.20
2023-01-07T21:07:19.983Z,8.10
2023-01-07T21:10:08.283Z,8.20
2023-01-07T21:12:55.216Z,8.00
2023-01-07T21:15:41.637Z,7.90
2023-01-07T21:18:28.954Z,8.00
2023-01-07T21:21:17.161Z,7.90
2023-01-07T21:24:04.008Z,7.90
2023-01-07T21:26:52.315Z,7.80
2023-01-07T21:29:39.019Z,7.70
2023-01-07T21:32:25.306Z,7.70
2023-01-07T21:35:12.561Z,7.60
2023-01-07T21:37:58.922Z,7.50
2023-01-07T21:40:45.197Z,7.70
2023-01-07T21:43:32.892Z,7.70
2023-01-07T21:46:20.570Z,7.70
2023-01-07T21:49:08.189Z,7.70
2023-01-07T21:51:55.395Z,7.70
2023-01-07T21:54:42.072Z,7.70
2023-01-07T21:57:28.382Z,7.70
2023-01-07T22:00:17.436Z,7.70
2023-01-07T22:03:04.044Z,7.80
2023-01-07T22:05:57.719Z,7.60
2023-01-07T22:08:44.244Z,7.60
2023-01-07T22:11:30.577Z,7.50
2023-01-07T22:14:18.898Z,7.40
2023-01-07T22:17:07.563Z,7.50
2023-01-07T22:19:54.176Z,7.60
2023-01-07T22:22:40.504Z,7.70
2023-01-07T22:25:26.807Z,7.70
2023-01-07T22:28:13.533Z,7.60
2023-01-07T22:31:03.941Z,7.70
2023-01-07T22:33:51.971Z,7.80
2023-01-07T22:36:43.129Z,7.70
2023-01-07T22:39:33.391Z,7.70
2023-01-07T22:42:30.041Z,7.80
2023-01-07T22:45:22.100Z,7.80
2023-01-07T22:48:10.397Z,7.90
2023-01-07T22:51:02.939Z,8.00
2023-01-07T22:53:52.058Z,8.10
2023-01-07T22:56:38.960Z,8.10
2023-01-07T22:59:25.291Z,8.10
2023-01-07T23:02:12.070Z,8.20
2023-01-07T23:04:59.203Z,8.30
2023-01-07T23:07:46.847Z,8.40
2023-01-07T23:10:33.733Z,8.40
2023-01-07T23:13:20.037Z,8.40
2023-01-07T23:16:07.565Z,8.40
2023-01-07T23:18:54.380Z,8.50
2023-01-07T23:21:43.269Z,8.50
2023-01-07T23:24:31.193Z,8.50
2023-01-07T23:27:17.779Z,8.40
2023-01-07T23:30:04.897Z,8.40
2023-01-07T23:32:51.825Z,8.40
2023-01-07T23:35:38.668Z,8.30
2023-01-07T23:38:24.927Z,8.20
2023-01-07T23:41:13.956Z,8.20
2023-01-07T23:44:00.281Z,8.10
2023-01-07T23:46:47.212Z,7.90
2023-01-07T23:49:33.836Z,7.90
2023-01-07T23:52:20.472Z,8.00
2023-01-07T23:55:08.015Z,8.00
2023-01-07T23:57:55.867Z,7.80
